sensor_id;sensor_type;location;lat;lon;timestamp;P1;durP1;ratioP1;P2;durP2;ratioP2
17606;SDS011;69222;52.242;20.980;2024-01-15T00:02:27;9.00;;;6.70;;
17606;SDS011;69222;52.242;20.980;2024-01-15T00:04:56;9.73;;;7.07;;
17606;SDS011;69222;52.242;20.980;2024-01-15T00:07:24;11.53;;;7.30;;
17606;SDS011;69222;52.242;20.980;2024-01-15T00:09:52;10.50;;;7.90;;
17606;SDS011;69222;52.242;20.980;2024-01-15T00:12:20;13.23;;;7.80;;
17606;SDS011;69222;52.242;20.980;2024-01-15T00:14:48;10.00;;;7.53;;
17606;SDS011;69222;52.242;20.980;2024-01-15T00:17:16;11.80;;;7.47;;
17606;SDS011;69222;52.242;20.980;2024-01-15T00:19:43;11.10;;;7.73;;
17606;SDS011;69222;52.242;20.980;2024-01-15T00:22:13;11.37;;;7.53;;
17606;SDS011;69222;52.242;20.980;2024-01-15T00:24:41;11.87;;;7.53;;
17606;SDS011;69222;52.242;20.980;2024-01-15T00:27:09;15.17;;;8.40;;
17606;SDS011;69222;52.242;20.980;2024-01-15T00:29:37;15.13;;;9.67;;
17606;SDS011;69222;52.242;20.980;2024-01-15T00:32:05;10.97;;;7.70;;
17606;SDS011;69222;52.242;20.980;2024-01-15T00:34:33;14.67;;;8.57;;
17606;SDS011;69222;52.242;20.980;2024-01-15T00:37:01;10.47;;;7.13;;
17606;SDS011;69222;52.242;20.980;2024-01-15T00:39:31;12.60;;;8.33;;
17606;SDS011;69222;52.242;20.980;2024-01-15T00:41:59;11.67;;;8.40;;
17606;SDS011;69222;52.242;20.980;2024-01-15T00:44:27;13.20;;;7.23;;
17606;SDS011;69222;52.242;20.980;2024-01-15T00:46:55;9.70;;;7.10;;
17606;SDS011;69222;52.242;20.980;2024-01-15T00:49:23;13.10;;;8.03;;
17606;SDS011;69222;52.242;20.980;2024-01-15T00:51:51;11.57;;;8.00;;
17606;SDS011;69222;52.242;20.980;2024-01-15T00:54:19;11.27;;;7.60;;
17606;SDS011;69222;52.242;20.980;2024-01-15T00:56:48;11.37;;;7.03;;
17606;SDS011;69222;52.242;20.980;2024-01-15T00:59:16;12.87;;;7.23;;
17606;SDS011;69222;52.242;20.980;2024-01-15T01:01:44;13.10;;;7.60;;
17606;SDS011;69222;52.242;20.980;2024-01-15T01:04:12;11.47;;;8.13;;
17606;SDS011;69222;52.242;20.980;2024-01-15T01:06:40;13.43;;;8.03;;
17606;SDS011;69222;52.242;20.980;2024-01-15T01:09:08;12.57;;;8.80;;
17606;SDS011;69222;52.242;20.980;2024-01-15T01:11:36;12.63;;;8.27;;
17606;SDS011;69222;52.242;20.980;2024-01-15T01:14:05;12.00;;;8.10;;
17606;SDS011;69222;52.242;20.980;2024-01-15T01:16:33;12.70;;;8.87;;
17606;SDS011;69222;52.242;20.980;2024-01-15T01:19:05;14.53;;;9.10;;
17606;SDS011;69222;52.242;20.980;2024-01-15T01:21:34;13.73;;;9.73;;
17606;SDS011;69222;52.242;20.980;2024-01-15T01:24:02;12.90;;;9.10;;
17606;SDS011;69222;52.242;20.980;2024-01-15T01:26:30;13.70;;;9.40;;
17606;SDS011;69222;52.242;20.980;2024-01-15T01:28:58;13.80;;;9.70;;
17606;SDS011;69222;52.242;20.980;2024-01-15T01:31:27;14.17;;;9.10;;
17606;SDS011;69222;52.242;20.980;2024-01-15T01:33:56;14.00;;;9.33;;
17606;SDS011;69222;52.242;20.980;2024-01-15T01:36:24;15.73;;;9.30;;
17606;SDS011;69222;52.242;20.980;2024-01-15T01:38:51;13.53;;;9.93;;
17606;SDS011;69222;52.242;20.980;2024-01-15T01:41:19;16.57;;;10.17;;
17606;SDS011;69222;52.242;20.980;2024-01-15T01:43:47;13.87;;;9.83;;
17606;SDS011;69222;52.242;20.980;2024-01-15T01:46:15;13.27;;;9.30;;
17606;SDS011;69222;52.242;20.980;2024-01-15T01:48:44;15.20;;;10.33;;
17606;SDS011;69222;52.242;20.980;2024-01-15T01:51:13;12.77;;;9.53;;
17606;SDS011;69222;52.242;20.980;2024-01-15T01:53:41;14.70;;;10.27;;
17606;SDS011;69222;52.242;20.980;2024-01-15T01:56:11;14.50;;;10.63;;
17606;SDS011;69222;52.242;20.980;2024-01-15T01:58:40;14.77;;;9.80;;
17606;SDS011;69222;52.242;20.980;2024-01-15T02:01:09;16.73;;;11.00;;
17606;SDS011;69222;52.242;20.980;2024-01-15T02:03:37;14.63;;;9.77;;
17606;SDS011;69222;52.242;20.980;2024-01-15T02:06:08;14.23;;;10.23;;
17606;SDS011;69222;52.242;20.980;2024-01-15T02:08:36;15.13;;;10.67;;
17606;SDS011;69222;52.242;20.980;2024-01-15T02:11:05;14.23;;;9.90;;
17606;SDS011;69222;52.242;20.980;2024-01-15T02:13:33;16.30;;;10.33;;
17606;SDS011;69222;52.242;20.980;2024-01-15T02:16:01;14.40;;;10.53;;
17606;SDS011;69222;52.242;20.980;2024-01-15T02:18:29;16.50;;;10.17;;
17606;SDS011;69222;52.242;20.980;2024-01-15T02:21:06;14.13;;;10.20;;
17606;SDS011;69222;52.242;20.980;2024-01-15T02:23:36;14.73;;;10.63;;
17606;SDS011;69222;52.242;20.980;2024-01-15T02:26:04;11.40;;;9.23;;
17606;SDS011;69222;52.242;20.980;2024-01-15T02:28:32;15.13;;;10.57;;
17606;SDS011;69222;52.242;20.980;2024-01-15T02:31:01;14.70;;;9.33;;
17606;SDS011;69222;52.242;20.980;2024-01-15T02:33:29;15.27;;;9.93;;
17606;SDS011;69222;52.242;20.980;2024-01-15T02:35:57;12.97;;;10.07;;
17606;SDS011;69222;52.242;20.980;2024-01-15T02:38:25;15.57;;;9.80;;
17606;SDS011;69222;52.242;20.980;2024-01-15T02:40:55;12.20;;;9.20;;
17606;SDS011;69222;52.242;20.980;2024-01-15T02:43:23;15.50;;;9.27;;
17606;SDS011;69222;52.242;20.980;2024-01-15T02:45:50;12.80;;;9.43;;
17606;SDS011;69222;52.242;20.980;2024-01-15T02:48:18;13.23;;;8.97;;
17606;SDS011;69222;52.242;20.980;2024-01-15T02:50:46;13.23;;;9.13;;
17606;SDS011;69222;52.242;20.980;2024-01-15T02:53:14;12.40;;;9.07;;
17606;SDS011;69222;52.242;20.980;2024-01-15T02:55:42;15.97;;;10.07;;
17606;SDS011;69222;52.242;20.980;2024-01-15T02:58:11;13.03;;;9.57;;
17606;SDS011;69222;52.242;20.980;2024-01-15T03:00:39;15.23;;;10.07;;
17606;SDS011;69222;52.242;20.980;2024-01-15T03:03:08;13.60;;;9.00;;
17606;SDS011;69222;52.242;20.980;2024-01-15T03:05:36;15.50;;;9.77;;
17606;SDS011;69222;52.242;20.980;2024-01-15T03:08:04;17.10;;;9.87;;
17606;SDS011;69222;52.242;20.980;2024-01-15T03:10:32;17.03;;;10.87;;
17606;SDS011;69222;52.242;20.980;2024-01-15T03:13:00;16.07;;;9.87;;
17606;SDS011;69222;52.242;20.980;2024-01-15T03:15:29;14.60;;;10.20;;
17606;SDS011;69222;52.242;20.980;2024-01-15T03:17:57;15.40;;;10.40;;
17606;SDS011;69222;52.242;20.980;2024-01-15T03:20:25;17.50;;;10.37;;
17606;SDS011;69222;52.242;20.980;2024-01-15T03:22:53;15.80;;;10.57;;
17606;SDS011;69222;52.242;20.980;2024-01-15T03:25:21;13.93;;;10.40;;
17606;SDS011;69222;52.242;20.980;2024-01-15T03:27:49;17.23;;;11.03;;
17606;SDS011;69222;52.242;20.980;2024-01-15T03:30:17;15.63;;;11.07;;
17606;SDS011;69222;52.242;20.980;2024-01-15T03:32:46;17.83;;;11.93;;
17606;SDS011;69222;52.242;20.980;2024-01-15T03:35:16;17.07;;;10.97;;
17606;SDS011;69222;52.242;20.980;2024-01-15T03:37:44;16.60;;;10.90;;
17606;SDS011;69222;52.242;20.980;2024-01-15T03:40:12;19.77;;;12.23;;
17606;SDS011;69222;52.242;20.980;2024-01-15T03:42:42;17.90;;;11.23;;
17606;SDS011;69222;52.242;20.980;2024-01-15T03:45:10;19.03;;;11.77;;
17606;SDS011;69222;52.242;20.980;2024-01-15T03:47:38;16.30;;;10.37;;
17606;SDS011;69222;52.242;20.980;2024-01-15T03:50:08;17.23;;;11.40;;
17606;SDS011;69222;52.242;20.980;2024-01-15T03:52:36;15.63;;;11.10;;
17606;SDS011;69222;52.242;20.980;2024-01-15T03:55:04;16.23;;;10.67;;
17606;SDS011;69222;52.242;20.980;2024-01-15T03:57:33;14.47;;;10.07;;
17606;SDS011;69222;52.242;20.980;2024-01-15T04:00:01;18.03;;;9.90;;
17606;SDS011;69222;52.242;20.980;2024-01-15T04:02:29;17.87;;;10.60;;
17606;SDS011;69222;52.242;20.980;2024-01-15T04:04:57;16.87;;;10.03;;
17606;SDS011;69222;52.242;20.980;2024-01-15T04:07:27;15.63;;;10.00;;
17606;SDS011;69222;52.242;20.980;2024-01-15T04:09:55;17.10;;;10.70;;
17606;SDS011;69222;52.242;20.980;2024-01-15T04:12:23;13.73;;;9.27;;
17606;SDS011;69222;52.242;20.980;2024-01-15T04:14:51;15.20;;;10.23;;
17606;SDS011;69222;52.242;20.980;2024-01-15T04:17:18;15.57;;;10.00;;
17606;SDS011;69222;52.242;20.980;2024-01-15T04:19:48;15.70;;;10.30;;
17606;SDS011;69222;52.242;20.980;2024-01-15T04:22:16;15.70;;;9.37;;
17606;SDS011;69222;52.242;20.980;2024-01-15T04:24:45;15.77;;;9.90;;
17606;SDS011;69222;52.242;20.980;2024-01-15T04:27:13;12.43;;;9.20;;
17606;SDS011;69222;52.242;20.980;2024-01-15T04:29:41;12.73;;;9.17;;
17606;SDS011;69222;52.242;20.980;2024-01-15T04:32:11;11.73;;;8.40;;
17606;SDS011;69222;52.242;20.980;2024-01-15T04:34:39;13.90;;;9.20;;
17606;SDS011;69222;52.242;20.980;2024-01-15T04:37:07;11.90;;;8.30;;
17606;SDS011;69222;52.242;20.980;2024-01-15T04:39:35;10.97;;;8.17;;
17606;SDS011;69222;52.242;20.980;2024-01-15T04:42:04;12.60;;;8.50;;
17606;SDS011;69222;52.242;20.980;2024-01-15T04:44:32;13.37;;;8.20;;
17606;SDS011;69222;52.242;20.980;2024-01-15T04:47:00;13.60;;;8.77;;
17606;SDS011;69222;52.242;20.980;2024-01-15T04:49:28;13.20;;;8.60;;
17606;SDS011;69222;52.242;20.980;2024-01-15T04:51:56;11.07;;;8.53;;
17606;SDS011;69222;52.242;20.980;2024-01-15T04:54:24;11.50;;;7.70;;
17606;SDS011;69222;52.242;20.980;2024-01-15T04:56:52;14.43;;;8.20;;
17606;SDS011;69222;52.242;20.980;2024-01-15T04:59:21;11.60;;;7.93;;
17606;SDS011;69222;52.242;20.980;2024-01-15T05:01:49;9.03;;;7.23;;
17606;SDS011;69222;52.242;20.980;2024-01-15T05:04:17;12.23;;;8.23;;
17606;SDS011;69222;52.242;20.980;2024-01-15T05:06:45;12.60;;;7.80;;
17606;SDS011;69222;52.242;20.980;2024-01-15T05:09:13;10.60;;;7.70;;
17606;SDS011;69222;52.242;20.980;2024-01-15T05:11:41;10.07;;;7.17;;
17606;SDS011;69222;52.242;20.980;2024-01-15T05:14:09;9.67;;;7.63;;
17606;SDS011;69222;52.242;20.980;2024-01-15T05:16:39;15.07;;;8.07;;
17606;SDS011;69222;52.242;20.980;2024-01-15T05:19:07;12.13;;;7.40;;
17606;SDS011;69222;52.242;20.980;2024-01-15T05:21:35;10.70;;;7.40;;
17606;SDS011;69222;52.242;20.980;2024-01-15T05:24:03;13.00;;;8.47;;
17606;SDS011;69222;52.242;20.980;2024-01-15T05:26:31;10.57;;;8.60;;
17606;SDS011;69222;52.242;20.980;2024-01-15T05:28:59;12.37;;;9.37;;
17606;SDS011;69222;52.242;20.980;2024-01-15T05:31:27;11.77;;;8.03;;
17606;SDS011;69222;52.242;20.980;2024-01-15T05:33:56;11.37;;;7.87;;
17606;SDS011;69222;52.242;20.980;2024-01-15T05:36:24;9.90;;;8.07;;
17606;SDS011;69222;52.242;20.980;2024-01-15T05:38:52;10.73;;;8.00;;
17606;SDS011;69222;52.242;20.980;2024-01-15T05:41:20;11.43;;;8.17;;
17606;SDS011;69222;52.242;20.980;2024-01-15T05:43:48;12.97;;;9.17;;
17606;SDS011;69222;52.242;20.980;2024-01-15T05:46:16;10.50;;;8.10;;
17606;SDS011;69222;52.242;20.980;2024-01-15T05:48:44;10.70;;;8.53;;
17606;SDS011;69222;52.242;20.980;2024-01-15T05:51:13;10.90;;;7.10;;
17606;SDS011;69222;52.242;20.980;2024-01-15T05:53:41;11.37;;;8.23;;
17606;SDS011;69222;52.242;20.980;2024-01-15T05:56:10;10.87;;;8.17;;
17606;SDS011;69222;52.242;20.980;2024-01-15T05:58:38;10.00;;;8.40;;
17606;SDS011;69222;52.242;20.980;2024-01-15T06:01:06;10.37;;;7.77;;
17606;SDS011;69222;52.242;20.980;2024-01-15T06:03:34;10.93;;;7.43;;
17606;SDS011;69222;52.242;20.980;2024-01-15T06:06:02;10.90;;;8.70;;
17606;SDS011;69222;52.242;20.980;2024-01-15T06:08:32;11.30;;;8.00;;
17606;SDS011;69222;52.242;20.980;2024-01-15T06:11:00;10.53;;;8.40;;
17606;SDS011;69222;52.242;20.980;2024-01-15T06:13:28;11.27;;;9.10;;
17606;SDS011;69222;52.242;20.980;2024-01-15T06:15:56;10.70;;;7.70;;
17606;SDS011;69222;52.242;20.980;2024-01-15T06:18:24;11.77;;;7.43;;
17606;SDS011;69222;52.242;20.980;2024-01-15T06:20:52;12.53;;;8.63;;
17606;SDS011;69222;52.242;20.980;2024-01-15T06:23:21;10.10;;;7.97;;
17606;SDS011;69222;52.242;20.980;2024-01-15T06:25:50;12.27;;;8.97;;
17606;SDS011;69222;52.242;20.980;2024-01-15T06:28:18;13.57;;;9.17;;
17606;SDS011;69222;52.242;20.980;2024-01-15T06:30:46;13.33;;;9.03;;
17606;SDS011;69222;52.242;20.980;2024-01-15T06:33:14;13.60;;;9.40;;
17606;SDS011;69222;52.242;20.980;2024-01-15T06:35:42;12.43;;;9.13;;
17606;SDS011;69222;52.242;20.980;2024-01-15T06:38:10;12.67;;;8.83;;
17606;SDS011;69222;52.242;20.980;2024-01-15T06:40:38;13.10;;;9.17;;
17606;SDS011;69222;52.242;20.980;2024-01-15T06:43:13;12.27;;;8.57;;
17606;SDS011;69222;52.242;20.980;2024-01-15T06:45:42;13.57;;;8.73;;
17606;SDS011;69222;52.242;20.980;2024-01-15T06:48:10;12.87;;;8.83;;
17606;SDS011;69222;52.242;20.980;2024-01-15T06:50:40;13.07;;;9.13;;
17606;SDS011;69222;52.242;20.980;2024-01-15T06:53:08;15.43;;;9.13;;
17606;SDS011;69222;52.242;20.980;2024-01-15T06:55:36;12.47;;;8.30;;
17606;SDS011;69222;52.242;20.980;2024-01-15T06:58:04;11.83;;;8.07;;
17606;SDS011;69222;52.242;20.980;2024-01-15T07:00:34;11.80;;;8.57;;
17606;SDS011;69222;52.242;20.980;2024-01-15T07:03:02;13.73;;;7.97;;
17606;SDS011;69222;52.242;20.980;2024-01-15T07:05:30;13.37;;;8.50;;
17606;SDS011;69222;52.242;20.980;2024-01-15T07:07:58;15.00;;;9.03;;
17606;SDS011;69222;52.242;20.980;2024-01-15T07:10:26;12.50;;;8.67;;
17606;SDS011;69222;52.242;20.980;2024-01-15T07:12:54;13.03;;;9.10;;
17606;SDS011;69222;52.242;20.980;2024-01-15T07:15:22;12.97;;;8.63;;
17606;SDS011;69222;52.242;20.980;2024-01-15T07:17:52;12.50;;;8.37;;
17606;SDS011;69222;52.242;20.980;2024-01-15T07:20:20;12.57;;;9.07;;
17606;SDS011;69222;52.242;20.980;2024-01-15T07:22:47;14.00;;;9.40;;
17606;SDS011;69222;52.242;20.980;2024-01-15T07:25:15;13.60;;;9.50;;
17606;SDS011;69222;52.242;20.980;2024-01-15T07:27:43;15.33;;;10.07;;
17606;SDS011;69222;52.242;20.980;2024-01-15T07:30:13;12.57;;;9.50;;
17606;SDS011;69222;52.242;20.980;2024-01-15T07:32:41;13.13;;;9.80;;
17606;SDS011;69222;52.242;20.980;2024-01-15T07:35:11;14.13;;;9.93;;
17606;SDS011;69222;52.242;20.980;2024-01-15T07:37:39;14.97;;;10.73;;
17606;SDS011;69222;52.242;20.980;2024-01-15T07:40:07;14.97;;;10.23;;
17606;SDS011;69222;52.242;20.980;2024-01-15T07:42:37;16.97;;;10.23;;
17606;SDS011;69222;52.242;20.980;2024-01-15T07:45:05;14.50;;;10.27;;
17606;SDS011;69222;52.242;20.980;2024-01-15T07:47:33;16.17;;;10.70;;
17606;SDS011;69222;52.242;20.980;2024-01-15T07:50:02;14.37;;;9.80;;
17606;SDS011;69222;52.242;20.980;2024-01-15T07:52:33;12.07;;;7.87;;
17606;SDS011;69222;52.242;20.980;2024-01-15T07:55:01;12.83;;;8.60;;
17606;SDS011;69222;52.242;20.980;2024-01-15T07:57:31;11.97;;;7.33;;
17606;SDS011;69222;52.242;20.980;2024-01-15T07:59:59;12.73;;;8.73;;
17606;SDS011;69222;52.242;20.980;2024-01-15T08:02:28;11.37;;;8.90;;
17606;SDS011;69222;52.242;20.980;2024-01-15T08:04:59;16.40;;;9.13;;
17606;SDS011;69222;52.242;20.980;2024-01-15T08:07:27;11.83;;;9.13;;
17606;SDS011;69222;52.242;20.980;2024-01-15T08:09:57;13.13;;;8.90;;
17606;SDS011;69222;52.242;20.980;2024-01-15T08:12:24;14.00;;;9.57;;
17606;SDS011;69222;52.242;20.980;2024-01-15T08:14:52;14.70;;;10.23;;
17606;SDS011;69222;52.242;20.980;2024-01-15T08:17:20;15.87;;;10.63;;
17606;SDS011;69222;52.242;20.980;2024-01-15T08:19:48;15.07;;;10.43;;
17606;SDS011;69222;52.242;20.980;2024-01-15T08:22:16;14.40;;;9.90;;
17606;SDS011;69222;52.242;20.980;2024-01-15T08:24:44;14.13;;;9.80;;
17606;SDS011;69222;52.242;20.980;2024-01-15T08:27:14;13.03;;;9.50;;
17606;SDS011;69222;52.242;20.980;2024-01-15T08:29:42;12.53;;;9.90;;
17606;SDS011;69222;52.242;20.980;2024-01-15T08:32:11;9.70;;;8.10;;
17606;SDS011;69222;52.242;20.980;2024-01-15T08:34:41;10.53;;;7.43;;
17606;SDS011;69222;52.242;20.980;2024-01-15T08:37:09;11.83;;;7.57;;
17606;SDS011;69222;52.242;20.980;2024-01-15T08:39:37;7.87;;;6.60;;
17606;SDS011;69222;52.242;20.980;2024-01-15T08:42:06;9.90;;;6.97;;
17606;SDS011;69222;52.242;20.980;2024-01-15T08:44:35;10.80;;;6.77;;
17606;SDS011;69222;52.242;20.980;2024-01-15T08:47:05;10.90;;;6.90;;
17606;SDS011;69222;52.242;20.980;2024-01-15T08:49:33;8.90;;;6.53;;
17606;SDS011;69222;52.242;20.980;2024-01-15T08:52:02;9.13;;;5.63;;
17606;SDS011;69222;52.242;20.980;2024-01-15T08:54:30;10.07;;;7.23;;
17606;SDS011;69222;52.242;20.980;2024-01-15T08:56:58;8.47;;;7.13;;
17606;SDS011;69222;52.242;20.980;2024-01-15T08:59:27;8.90;;;7.27;;
17606;SDS011;69222;52.242;20.980;2024-01-15T09:01:56;9.67;;;7.53;;
17606;SDS011;69222;52.242;20.980;2024-01-15T09:04:24;10.00;;;7.73;;
17606;SDS011;69222;52.242;20.980;2024-01-15T09:06:52;8.83;;;7.00;;
17606;SDS011;69222;52.242;20.980;2024-01-15T09:09:20;11.93;;;7.40;;
17606;SDS011;69222;52.242;20.980;2024-01-15T09:11:48;9.77;;;7.47;;
17606;SDS011;69222;52.242;20.980;2024-01-15T09:14:16;9.43;;;7.87;;
17606;SDS011;69222;52.242;20.980;2024-01-15T09:17:03;9.80;;;7.30;;
17606;SDS011;69222;52.242;20.980;2024-01-15T09:19:31;8.87;;;6.90;;
17606;SDS011;69222;52.242;20.980;2024-01-15T09:21:59;9.83;;;7.03;;
17606;SDS011;69222;52.242;20.980;2024-01-15T09:24:28;7.50;;;6.37;;
17606;SDS011;69222;52.242;20.980;2024-01-15T09:26:56;9.53;;;5.53;;
17606;SDS011;69222;52.242;20.980;2024-01-15T09:29:24;7.57;;;6.10;;
17606;SDS011;69222;52.242;20.980;2024-01-15T09:31:51;10.17;;;6.33;;
17606;SDS011;69222;52.242;20.980;2024-01-15T09:34:21;7.43;;;5.43;;
17606;SDS011;69222;52.242;20.980;2024-01-15T09:36:49;6.67;;;5.80;;
17606;SDS011;69222;52.242;20.980;2024-01-15T09:39:17;7.63;;;5.50;;
17606;SDS011;69222;52.242;20.980;2024-01-15T09:41:45;7.63;;;4.97;;
17606;SDS011;69222;52.242;20.980;2024-01-15T09:44:14;8.17;;;5.63;;
17606;SDS011;69222;52.242;20.980;2024-01-15T09:46:43;9.00;;;5.70;;
17606;SDS011;69222;52.242;20.980;2024-01-15T09:49:11;9.23;;;4.97;;
17606;SDS011;69222;52.242;20.980;2024-01-15T09:51:41;7.73;;;5.63;;
17606;SDS011;69222;52.242;20.980;2024-01-15T09:54:12;7.50;;;5.27;;
17606;SDS011;69222;52.242;20.980;2024-01-15T09:56:45;7.33;;;4.57;;
17606;SDS011;69222;52.242;20.980;2024-01-15T09:59:13;7.47;;;4.90;;
17606;SDS011;69222;52.242;20.980;2024-01-15T10:01:43;8.43;;;5.03;;
17606;SDS011;69222;52.242;20.980;2024-01-15T10:04:11;7.03;;;4.80;;
17606;SDS011;69222;52.242;20.980;2024-01-15T10:06:42;5.67;;;4.00;;
17606;SDS011;69222;52.242;20.980;2024-01-15T10:09:13;7.90;;;4.70;;
17606;SDS011;69222;52.242;20.980;2024-01-15T10:11:42;6.77;;;4.03;;
17606;SDS011;69222;52.242;20.980;2024-01-15T10:14:10;7.07;;;4.23;;
17606;SDS011;69222;52.242;20.980;2024-01-15T10:16:39;9.80;;;4.53;;
17606;SDS011;69222;52.242;20.980;2024-01-15T10:19:08;6.67;;;4.63;;
17606;SDS011;69222;52.242;20.980;2024-01-15T10:21:36;7.90;;;4.90;;
17606;SDS011;69222;52.242;20.980;2024-01-15T10:24:06;9.57;;;4.23;;
17606;SDS011;69222;52.242;20.980;2024-01-15T10:26:34;7.90;;;4.00;;
17606;SDS011;69222;52.242;20.980;2024-01-15T10:29:02;6.17;;;4.00;;
17606;SDS011;69222;52.242;20.980;2024-01-15T10:31:30;9.03;;;5.03;;
17606;SDS011;69222;52.242;20.980;2024-01-15T10:34:09;8.63;;;4.63;;
17606;SDS011;69222;52.242;20.980;2024-01-15T10:36:39;9.70;;;5.53;;
17606;SDS011;69222;52.242;20.980;2024-01-15T10:39:09;6.23;;;4.93;;
17606;SDS011;69222;52.242;20.980;2024-01-15T10:41:38;6.60;;;4.73;;
17606;SDS011;69222;52.242;20.980;2024-01-15T10:44:06;8.27;;;4.97;;
17606;SDS011;69222;52.242;20.980;2024-01-15T10:46:34;8.63;;;5.93;;
17606;SDS011;69222;52.242;20.980;2024-01-15T10:49:02;6.40;;;4.70;;
17606;SDS011;69222;52.242;20.980;2024-01-15T10:51:32;10.07;;;5.53;;
17606;SDS011;69222;52.242;20.980;2024-01-15T10:53:59;8.37;;;4.80;;
17606;SDS011;69222;52.242;20.980;2024-01-15T10:56:30;8.03;;;5.13;;
17606;SDS011;69222;52.242;20.980;2024-01-15T10:58:59;6.30;;;4.87;;
17606;SDS011;69222;52.242;20.980;2024-01-15T11:01:28;8.40;;;4.80;;
17606;SDS011;69222;52.242;20.980;2024-01-15T11:03:56;8.77;;;5.37;;
17606;SDS011;69222;52.242;20.980;2024-01-15T11:06:25;7.23;;;5.00;;
17606;SDS011;69222;52.242;20.980;2024-01-15T11:08:55;5.27;;;4.43;;
17606;SDS011;69222;52.242;20.980;2024-01-15T11:11:25;6.77;;;4.47;;
17606;SDS011;69222;52.242;20.980;2024-01-15T11:13:54;9.50;;;5.17;;
17606;SDS011;69222;52.242;20.980;2024-01-15T11:16:23;5.87;;;4.60;;
17606;SDS011;69222;52.242;20.980;2024-01-15T11:19:03;7.97;;;5.20;;
17606;SDS011;69222;52.242;20.980;2024-01-15T11:21:35;8.47;;;4.87;;
17606;SDS011;69222;52.242;20.980;2024-01-15T11:24:10;7.00;;;4.20;;
17606;SDS011;69222;52.242;20.980;2024-01-15T11:27:02;6.77;;;4.83;;
17606;SDS011;69222;52.242;20.980;2024-01-15T11:29:33;9.03;;;5.47;;
17606;SDS011;69222;52.242;20.980;2024-01-15T11:32:02;10.67;;;5.27;;
17606;SDS011;69222;52.242;20.980;2024-01-15T11:34:51;10.33;;;6.00;;
17606;SDS011;69222;52.242;20.980;2024-01-15T11:37:21;7.63;;;5.30;;
17606;SDS011;69222;52.242;20.980;2024-01-15T11:39:51;7.27;;;4.73;;
17606;SDS011;69222;52.242;20.980;2024-01-15T11:42:21;7.43;;;5.07;;
17606;SDS011;69222;52.242;20.980;2024-01-15T11:44:51;6.73;;;5.00;;
17606;SDS011;69222;52.242;20.980;2024-01-15T11:47:27;11.80;;;5.70;;
17606;SDS011;69222;52.242;20.980;2024-01-15T11:50:14;9.20;;;5.20;;
17606;SDS011;69222;52.242;20.980;2024-01-15T11:52:42;9.23;;;4.87;;
17606;SDS011;69222;52.242;20.980;2024-01-15T11:55:19;8.20;;;4.93;;
17606;SDS011;69222;52.242;20.980;2024-01-15T11:57:50;9.57;;;5.40;;
17606;SDS011;69222;52.242;20.980;2024-01-15T12:00:21;7.33;;;5.50;;
17606;SDS011;69222;52.242;20.980;2024-01-15T12:02:49;10.30;;;5.30;;
17606;SDS011;69222;52.242;20.980;2024-01-15T12:05:18;9.97;;;6.60;;
17606;SDS011;69222;52.242;20.980;2024-01-15T12:07:48;8.43;;;5.33;;
17606;SDS011;69222;52.242;20.980;2024-01-15T12:10:17;9.10;;;5.97;;
17606;SDS011;69222;52.242;20.980;2024-01-15T12:12:54;10.27;;;6.43;;
17606;SDS011;69222;52.242;20.980;2024-01-15T12:15:27;9.20;;;6.43;;
17606;SDS011;69222;52.242;20.980;2024-01-15T12:17:56;11.33;;;6.40;;
17606;SDS011;69222;52.242;20.980;2024-01-15T12:20:26;8.73;;;5.93;;
17606;SDS011;69222;52.242;20.980;2024-01-15T12:22:54;8.53;;;5.87;;
17606;SDS011;69222;52.242;20.980;2024-01-15T12:25:29;7.87;;;5.50;;
17606;SDS011;69222;52.242;20.980;2024-01-15T12:27:57;10.40;;;6.80;;
17606;SDS011;69222;52.242;20.980;2024-01-15T12:30:28;12.77;;;6.80;;
17606;SDS011;69222;52.242;20.980;2024-01-15T12:32:58;9.47;;;5.27;;
17606;SDS011;69222;52.242;20.980;2024-01-15T12:35:29;9.77;;;6.33;;
17606;SDS011;69222;52.242;20.980;2024-01-15T12:37:59;10.07;;;6.57;;
17606;SDS011;69222;52.242;20.980;2024-01-15T12:40:28;12.63;;;7.50;;
17606;SDS011;69222;52.242;20.980;2024-01-15T12:42:56;11.73;;;7.63;;
17606;SDS011;69222;52.242;20.980;2024-01-15T12:45:24;13.87;;;8.80;;
17606;SDS011;69222;52.242;20.980;2024-01-15T12:47:54;14.93;;;8.73;;
17606;SDS011;69222;52.242;20.980;2024-01-15T12:50:24;17.93;;;8.70;;
17606;SDS011;69222;52.242;20.980;2024-01-15T12:52:52;13.67;;;8.93;;
17606;SDS011;69222;52.242;20.980;2024-01-15T12:55:20;13.73;;;8.33;;
17606;SDS011;69222;52.242;20.980;2024-01-15T12:57:49;15.23;;;7.80;;
17606;SDS011;69222;52.242;20.980;2024-01-15T13:00:19;10.67;;;7.80;;
17606;SDS011;69222;52.242;20.980;2024-01-15T13:02:47;12.70;;;7.80;;
17606;SDS011;69222;52.242;20.980;2024-01-15T13:05:17;12.27;;;7.20;;
17606;SDS011;69222;52.242;20.980;2024-01-15T13:07:47;10.13;;;6.87;;
17606;SDS011;69222;52.242;20.980;2024-01-15T13:10:15;9.77;;;6.83;;
17606;SDS011;69222;52.242;20.980;2024-01-15T13:12:43;12.50;;;7.60;;
17606;SDS011;69222;52.242;20.980;2024-01-15T13:15:11;13.53;;;7.30;;
17606;SDS011;69222;52.242;20.980;2024-01-15T13:17:41;12.87;;;7.93;;
17606;SDS011;69222;52.242;20.980;2024-01-15T13:20:10;11.47;;;8.07;;
17606;SDS011;69222;52.242;20.980;2024-01-15T13:22:41;13.73;;;8.20;;
17606;SDS011;69222;52.242;20.980;2024-01-15T13:25:11;13.80;;;8.13;;
17606;SDS011;69222;52.242;20.980;2024-01-15T13:27:39;13.60;;;8.77;;
17606;SDS011;69222;52.242;20.980;2024-01-15T13:30:08;14.20;;;7.87;;
17606;SDS011;69222;52.242;20.980;2024-01-15T13:32:39;12.83;;;8.17;;
17606;SDS011;69222;52.242;20.980;2024-01-15T13:35:07;12.50;;;6.63;;
17606;SDS011;69222;52.242;20.980;2024-01-15T13:37:41;14.17;;;8.40;;
17606;SDS011;69222;52.242;20.980;2024-01-15T13:40:09;14.43;;;8.43;;
17606;SDS011;69222;52.242;20.980;2024-01-15T13:42:43;9.73;;;6.83;;
17606;SDS011;69222;52.242;20.980;2024-01-15T13:45:12;14.23;;;7.90;;
17606;SDS011;69222;52.242;20.980;2024-01-15T13:47:41;12.03;;;7.13;;
17606;SDS011;69222;52.242;20.980;2024-01-15T13:50:10;9.57;;;6.87;;
17606;SDS011;69222;52.242;20.980;2024-01-15T13:52:38;12.17;;;7.60;;
17606;SDS011;69222;52.242;20.980;2024-01-15T13:55:08;10.50;;;7.03;;
17606;SDS011;69222;52.242;20.980;2024-01-15T13:57:36;15.23;;;8.50;;
17606;SDS011;69222;52.242;20.980;2024-01-15T14:00:05;14.33;;;6.90;;
17606;SDS011;69222;52.242;20.980;2024-01-15T14:02:38;12.10;;;7.40;;
17606;SDS011;69222;52.242;20.980;2024-01-15T14:05:06;12.13;;;7.27;;
17606;SDS011;69222;52.242;20.980;2024-01-15T14:07:35;11.80;;;7.50;;
17606;SDS011;69222;52.242;20.980;2024-01-15T14:10:03;10.83;;;7.07;;
17606;SDS011;69222;52.242;20.980;2024-01-15T14:12:33;11.43;;;7.57;;
17606;SDS011;69222;52.242;20.980;2024-01-15T14:15:02;11.33;;;6.80;;
17606;SDS011;69222;52.242;20.980;2024-01-15T14:17:32;13.23;;;7.30;;
17606;SDS011;69222;52.242;20.980;2024-01-15T14:20:00;13.13;;;7.43;;
17606;SDS011;69222;52.242;20.980;2024-01-15T14:22:28;12.77;;;7.10;;
17606;SDS011;69222;52.242;20.980;2024-01-15T14:24:56;11.33;;;6.77;;
17606;SDS011;69222;52.242;20.980;2024-01-15T14:27:24;12.20;;;7.20;;
17606;SDS011;69222;52.242;20.980;2024-01-15T14:29:53;11.70;;;6.40;;
17606;SDS011;69222;52.242;20.980;2024-01-15T14:32:21;9.93;;;6.47;;
17606;SDS011;69222;52.242;20.980;2024-01-15T14:34:50;11.43;;;6.50;;